首页
METAR-TAF:

METAR-TAF

机场 :

巴里奧斯港, 危地马拉

纬度: 15-43N, 经度: 088-36W, 海拔: 1米

当前天气观测

该预报发布于58分钟前的05:00 UTC
静风
温度 23°C
湿度 94%
气压 1019 hPa
能見度: 8000
散云层高于1400英尺
阴天层高于7000英尺

METAR: MGPB 230500Z 00000KT 8000 RA SCT014 OVC070 23/22 Q1019 A3009

时间: 23:58 (05:58 UTC)

预报

该预报发布于58分钟前的05:00 UTC
预报有效从23日的 06点(UTC)到 24日的 06点(UTC)
风速节,风向
能见度10公里或以上
散云层高于1600英尺
散云层高于8000英尺
短暂存在
从 23日的 06点(UTC)到 24日的 16点(UTC)
能見度: 8000
多云层高于1600英尺
阴天层高于8000英尺
雨, 毛毛雨
成为
从 23日的 16点(UTC)到 23日的 18点(UTC)
风速8节,风向东北
散云层高于1800英尺
短暂存在
从 23日的 23点(UTC)到 24日的 06点(UTC)
能見度: 8000
多云层高于1600英尺
多云层高于8000英尺
小毛毛雨

TAF: MGPB 230500Z 2306/2406 00000KT 9999 SCT016 SCT080 TX29/2320Z TN21/2312Z TEMPO 2306/2416 8000 RADZ BKN016 OVC080 BECMG 2316/2318 05008KT SCT018 TEMPO 2323/2406 8000 -DZ BKN016 BKN080

超过4000个机场的气象观测和天气预报(METAR&TAF报告)。

可查询的气象台以黄色和红色小点在地图上表示。

将鼠标移到小点上方,可查看气象台名称。

然后点击查看天气观测和预报。

如需切换地图:点击带黑十字的绿色按钮放大地图;点击带横线的绿色按钮缩小地图;或者点击绿色箭头查看邻近地区的地图。


METAR-TAF: